sensor_id;sensor_type;location;lat;lon;timestamp;temperature;humidity
1225;DHT22;602;48.000;7.840;2022-11-20T00:01:32;9.60;99.90
1225;DHT22;602;48.000;7.840;2022-11-20T00:03:59;9.50;99.90
1225;DHT22;602;48.000;7.840;2022-11-20T00:06:28;9.50;99.90
1225;DHT22;602;48.000;7.840;2022-11-20T00:08:58;9.50;99.90
1225;DHT22;602;48.000;7.840;2022-11-20T00:11:29;9.40;99.90
1225;DHT22;602;48.000;7.840;2022-11-20T00:13:58;9.30;99.90
1225;DHT22;602;48.000;7.840;2022-11-20T00:16:31;9.30;99.90
1225;DHT22;602;48.000;7.840;2022-11-20T00:18:59;9.30;99.90
1225;DHT22;602;48.000;7.840;2022-11-20T00:21:28;9.40;99.90
1225;DHT22;602;48.000;7.840;2022-11-20T00:23:58;9.30;99.90
1225;DHT22;602;48.000;7.840;2022-11-20T00:26:28;9.20;99.90
1225;DHT22;602;48.000;7.840;2022-11-20T00:28:57;9.20;99.90
1225;DHT22;602;48.000;7.840;2022-11-20T00:31:24;9.20;99.90
1225;DHT22;602;48.000;7.840;2022-11-20T00:33:54;9.20;99.90
1225;DHT22;602;48.000;7.840;2022-11-20T00:36:24;9.10;99.90
1225;DHT22;602;48.000;7.840;2022-11-20T00:38:52;9.00;99.90
1225;DHT22;602;48.000;7.840;2022-11-20T00:41:19;9.00;99.90
1225;DHT22;602;48.000;7.840;2022-11-20T00:43:46;8.90;99.90
1225;DHT22;602;48.000;7.840;2022-11-20T00:46:17;9.00;99.90
1225;DHT22;602;48.000;7.840;2022-11-20T00:48:46;9.00;99.90
1225;DHT22;602;48.000;7.840;2022-11-20T00:51:17;9.00;99.90
1225;DHT22;602;48.000;7.840;2022-11-20T00:53:51;9.00;99.90
1225;DHT22;602;48.000;7.840;2022-11-20T00:56:20;8.90;99.90
1225;DHT22;602;48.000;7.840;2022-11-20T00:58:50;9.00;99.90
1225;DHT22;602;48.000;7.840;2022-11-20T01:01:22;9.00;99.90
1225;DHT22;602;48.000;7.840;2022-11-20T01:03:50;9.00;99.90
1225;DHT22;602;48.000;7.840;2022-11-20T01:06:20;8.90;99.90
1225;DHT22;602;48.000;7.840;2022-11-20T01:08:49;9.00;99.90
1225;DHT22;602;48.000;7.840;2022-11-20T01:11:17;9.00;99.90
1225;DHT22;602;48.000;7.840;2022-11-20T01:13:45;9.00;99.90
1225;DHT22;602;48.000;7.840;2022-11-20T01:16:14;9.00;99.90
1225;DHT22;602;48.000;7.840;2022-11-20T01:18:47;9.00;99.90
1225;DHT22;602;48.000;7.840;2022-11-20T01:21:19;9.00;99.90
1225;DHT22;602;48.000;7.840;2022-11-20T01:23:49;9.10;99.90
1225;DHT22;602;48.000;7.840;2022-11-20T01:26:20;9.20;99.90
1225;DHT22;602;48.000;7.840;2022-11-20T01:28:50;9.20;99.90
1225;DHT22;602;48.000;7.840;2022-11-20T01:31:19;9.20;99.90
1225;DHT22;602;48.000;7.840;2022-11-20T01:33:49;9.20;99.90
1225;DHT22;602;48.000;7.840;2022-11-20T01:36:19;9.20;99.90
1225;DHT22;602;48.000;7.840;2022-11-20T01:38:58;9.20;99.90
1225;DHT22;602;48.000;7.840;2022-11-20T01:41:26;9.00;99.90
1225;DHT22;602;48.000;7.840;2022-11-20T01:44:14;9.00;99.90
1225;DHT22;602;48.000;7.840;2022-11-20T01:46:48;9.00;99.90
1225;DHT22;602;48.000;7.840;2022-11-20T01:49:21;8.90;99.90
1225;DHT22;602;48.000;7.840;2022-11-20T01:51:52;8.90;99.90
1225;DHT22;602;48.000;7.840;2022-11-20T01:54:23;9.00;99.90
1225;DHT22;602;48.000;7.840;2022-11-20T01:56:56;9.00;99.90
1225;DHT22;602;48.000;7.840;2022-11-20T01:59:25;9.00;99.90
1225;DHT22;602;48.000;7.840;2022-11-20T02:01:58;9.00;99.90
1225;DHT22;602;48.000;7.840;2022-11-20T02:04:25;9.10;99.90
1225;DHT22;602;48.000;7.840;2022-11-20T02:06:59;9.10;99.90
1225;DHT22;602;48.000;7.840;2022-11-20T02:09:30;9.10;99.90
1225;DHT22;602;48.000;7.840;2022-11-20T02:11:58;8.90;99.90
1225;DHT22;602;48.000;7.840;2022-11-20T02:14:27;8.90;99.90
1225;DHT22;602;48.000;7.840;2022-11-20T02:16:54;9.00;99.90
1225;DHT22;602;48.000;7.840;2022-11-20T02:19:24;9.00;99.90
1225;DHT22;602;48.000;7.840;2022-11-20T02:22:00;9.00;99.90
1225;DHT22;602;48.000;7.840;2022-11-20T02:24:31;8.90;99.90
1225;DHT22;602;48.000;7.840;2022-11-20T02:27:00;8.90;99.90
1225;DHT22;602;48.000;7.840;2022-11-20T02:29:32;8.90;99.90
1225;DHT22;602;48.000;7.840;2022-11-20T02:32:02;8.90;99.90
1225;DHT22;602;48.000;7.840;2022-11-20T02:34:31;8.80;99.90
1225;DHT22;602;48.000;7.840;2022-11-20T02:37:01;8.90;99.90
1225;DHT22;602;48.000;7.840;2022-11-20T02:39:29;9.00;99.90
1225;DHT22;602;48.000;7.840;2022-11-20T02:42:01;9.00;99.90
1225;DHT22;602;48.000;7.840;2022-11-20T02:44:32;8.90;99.90
1225;DHT22;602;48.000;7.840;2022-11-20T02:47:02;8.90;99.90
1225;DHT22;602;48.000;7.840;2022-11-20T02:49:30;8.90;99.90
1225;DHT22;602;48.000;7.840;2022-11-20T02:51:57;8.90;99.90
1225;DHT22;602;48.000;7.840;2022-11-20T02:54:24;9.00;99.90
1225;DHT22;602;48.000;7.840;2022-11-20T02:56:54;9.00;99.90
1225;DHT22;602;48.000;7.840;2022-11-20T02:59:25;9.00;99.90
1225;DHT22;602;48.000;7.840;2022-11-20T03:01:53;9.00;99.90
1225;DHT22;602;48.000;7.840;2022-11-20T03:04:20;9.00;99.90
1225;DHT22;602;48.000;7.840;2022-11-20T03:06:48;9.00;99.90
1225;DHT22;602;48.000;7.840;2022-11-20T03:09:15;8.90;99.90
1225;DHT22;602;48.000;7.840;2022-11-20T03:11:43;9.00;99.90
1225;DHT22;602;48.000;7.840;2022-11-20T03:14:13;9.00;99.90
1225;DHT22;602;48.000;7.840;2022-11-20T03:16:43;9.00;99.90
1225;DHT22;602;48.000;7.840;2022-11-20T03:19:15;9.00;99.90
1225;DHT22;602;48.000;7.840;2022-11-20T03:21:45;9.00;99.90
1225;DHT22;602;48.000;7.840;2022-11-20T03:24:15;9.00;99.90
1225;DHT22;602;48.000;7.840;2022-11-20T03:26:43;8.90;99.90
1225;DHT22;602;48.000;7.840;2022-11-20T03:29:10;9.00;99.90
1225;DHT22;602;48.000;7.840;2022-11-20T03:31:40;9.00;99.90
1225;DHT22;602;48.000;7.840;2022-11-20T03:34:10;8.90;99.90
1225;DHT22;602;48.000;7.840;2022-11-20T03:36:38;8.90;99.90
1225;DHT22;602;48.000;7.840;2022-11-20T03:39:08;8.90;99.90
1225;DHT22;602;48.000;7.840;2022-11-20T03:41:38;8.90;99.90
1225;DHT22;602;48.000;7.840;2022-11-20T03:44:08;8.80;99.90
1225;DHT22;602;48.000;7.840;2022-11-20T03:46:35;8.80;99.90
1225;DHT22;602;48.000;7.840;2022-11-20T03:49:04;8.80;99.90
1225;DHT22;602;48.000;7.840;2022-11-20T03:51:35;8.80;99.90
1225;DHT22;602;48.000;7.840;2022-11-20T03:54:04;8.70;99.90
1225;DHT22;602;48.000;7.840;2022-11-20T03:56:33;8.70;99.90
1225;DHT22;602;48.000;7.840;2022-11-20T03:59:01;8.80;99.90
1225;DHT22;602;48.000;7.840;2022-11-20T04:01:35;8.90;99.90
1225;DHT22;602;48.000;7.840;2022-11-20T04:04:04;8.90;99.90
1225;DHT22;602;48.000;7.840;2022-11-20T04:06:35;9.00;99.90
1225;DHT22;602;48.000;7.840;2022-11-20T04:09:02;9.00;99.90
1225;DHT22;602;48.000;7.840;2022-11-20T04:11:31;9.00;99.90
1225;DHT22;602;48.000;7.840;2022-11-20T04:13:59;9.00;99.90
1225;DHT22;602;48.000;7.840;2022-11-20T04:16:29;8.90;99.90
1225;DHT22;602;48.000;7.840;2022-11-20T04:19:00;8.90;99.90
1225;DHT22;602;48.000;7.840;2022-11-20T04:21:31;8.90;99.90
1225;DHT22;602;48.000;7.840;2022-11-20T04:24:01;8.70;99.90
1225;DHT22;602;48.000;7.840;2022-11-20T04:26:31;8.70;99.90
1225;DHT22;602;48.000;7.840;2022-11-20T04:29:00;8.80;99.90
1225;DHT22;602;48.000;7.840;2022-11-20T04:31:29;8.80;99.90
1225;DHT22;602;48.000;7.840;2022-11-20T04:33:59;8.80;99.90
1225;DHT22;602;48.000;7.840;2022-11-20T04:36:29;8.80;99.90
1225;DHT22;602;48.000;7.840;2022-11-20T04:39:02;8.80;99.90
1225;DHT22;602;48.000;7.840;2022-11-20T04:41:31;8.80;99.90
1225;DHT22;602;48.000;7.840;2022-11-20T04:44:00;8.80;99.90
1225;DHT22;602;48.000;7.840;2022-11-20T04:46:29;8.80;99.90
1225;DHT22;602;48.000;7.840;2022-11-20T04:48:56;8.80;99.90
1225;DHT22;602;48.000;7.840;2022-11-20T04:51:26;8.80;99.90
1225;DHT22;602;48.000;7.840;2022-11-20T04:53:53;8.70;99.90
1225;DHT22;602;48.000;7.840;2022-11-20T04:56:21;8.80;99.90
1225;DHT22;602;48.000;7.840;2022-11-20T04:58:51;8.80;99.90
1225;DHT22;602;48.000;7.840;2022-11-20T05:01:20;8.80;99.90
1225;DHT22;602;48.000;7.840;2022-11-20T05:03:47;8.80;99.90
1225;DHT22;602;48.000;7.840;2022-11-20T05:06:16;8.80;99.90
1225;DHT22;602;48.000;7.840;2022-11-20T05:08:44;8.80;99.90
1225;DHT22;602;48.000;7.840;2022-11-20T05:11:13;8.80;99.90
1225;DHT22;602;48.000;7.840;2022-11-20T05:13:43;8.70;99.90
1225;DHT22;602;48.000;7.840;2022-11-20T05:16:12;8.80;99.90
1225;DHT22;602;48.000;7.840;2022-11-20T05:18:40;8.70;99.90
1225;DHT22;602;48.000;7.840;2022-11-20T05:21:15;8.80;99.90
1225;DHT22;602;48.000;7.840;2022-11-20T05:23:45;8.80;99.90
1225;DHT22;602;48.000;7.840;2022-11-20T05:26:13;8.80;99.90
1225;DHT22;602;48.000;7.840;2022-11-20T05:28:42;8.80;99.90
1225;DHT22;602;48.000;7.840;2022-11-20T05:31:11;8.80;99.90
1225;DHT22;602;48.000;7.840;2022-11-20T05:33:40;8.70;99.90
1225;DHT22;602;48.000;7.840;2022-11-20T05:36:08;8.70;99.90
1225;DHT22;602;48.000;7.840;2022-11-20T05:38:37;8.60;99.90
1225;DHT22;602;48.000;7.840;2022-11-20T05:41:07;8.70;99.90
1225;DHT22;602;48.000;7.840;2022-11-20T05:43:35;8.70;99.90
1225;DHT22;602;48.000;7.840;2022-11-20T05:46:05;8.70;99.90
1225;DHT22;602;48.000;7.840;2022-11-20T05:48:33;8.70;99.90
1225;DHT22;602;48.000;7.840;2022-11-20T05:51:02;8.60;99.90
1225;DHT22;602;48.000;7.840;2022-11-20T05:53:33;8.70;99.90
1225;DHT22;602;48.000;7.840;2022-11-20T05:56:09;8.70;99.90
1225;DHT22;602;48.000;7.840;2022-11-20T05:58:37;8.60;99.90
1225;DHT22;602;48.000;7.840;2022-11-20T06:01:11;8.60;99.90
1225;DHT22;602;48.000;7.840;2022-11-20T06:03:39;8.60;99.90
1225;DHT22;602;48.000;7.840;2022-11-20T06:06:08;8.60;99.90
1225;DHT22;602;48.000;7.840;2022-11-20T06:08:38;8.60;99.90
1225;DHT22;602;48.000;7.840;2022-11-20T06:11:06;8.60;99.90
1225;DHT22;602;48.000;7.840;2022-11-20T06:13:38;8.70;99.90
1225;DHT22;602;48.000;7.840;2022-11-20T06:16:07;8.70;99.90
1225;DHT22;602;48.000;7.840;2022-11-20T06:18:35;8.60;99.90
1225;DHT22;602;48.000;7.840;2022-11-20T06:21:06;8.60;99.90
1225;DHT22;602;48.000;7.840;2022-11-20T06:23:35;8.70;99.90
1225;DHT22;602;48.000;7.840;2022-11-20T06:26:03;8.70;99.90
1225;DHT22;602;48.000;7.840;2022-11-20T06:28:30;8.80;99.90
1225;DHT22;602;48.000;7.840;2022-11-20T06:31:00;8.80;99.90
1225;DHT22;602;48.000;7.840;2022-11-20T06:33:28;8.80;99.90
1225;DHT22;602;48.000;7.840;2022-11-20T06:35:58;8.80;99.90
1225;DHT22;602;48.000;7.840;2022-11-20T06:38:25;8.80;99.90
1225;DHT22;602;48.000;7.840;2022-11-20T06:40:54;8.80;99.90
1225;DHT22;602;48.000;7.840;2022-11-20T06:43:25;8.80;99.90
1225;DHT22;602;48.000;7.840;2022-11-20T06:45:52;8.80;99.90
1225;DHT22;602;48.000;7.840;2022-11-20T06:48:19;8.80;99.90
1225;DHT22;602;48.000;7.840;2022-11-20T06:50:49;8.80;99.90
1225;DHT22;602;48.000;7.840;2022-11-20T06:53:21;8.80;99.90
1225;DHT22;602;48.000;7.840;2022-11-20T06:55:50;8.80;99.90
1225;DHT22;602;48.000;7.840;2022-11-20T06:58:17;8.80;99.90
1225;DHT22;602;48.000;7.840;2022-11-20T07:00:47;8.70;99.90
1225;DHT22;602;48.000;7.840;2022-11-20T07:03:15;8.70;99.90
1225;DHT22;602;48.000;7.840;2022-11-20T07:05:44;8.60;99.90
1225;DHT22;602;48.000;7.840;2022-11-20T07:08:16;8.50;99.90
1225;DHT22;602;48.000;7.840;2022-11-20T07:10:46;8.40;99.90
1225;DHT22;602;48.000;7.840;2022-11-20T07:13:17;8.40;99.90
1225;DHT22;602;48.000;7.840;2022-11-20T07:15:46;8.40;99.90
1225;DHT22;602;48.000;7.840;2022-11-20T07:18:13;8.40;99.90
1225;DHT22;602;48.000;7.840;2022-11-20T07:20:40;8.40;99.90
1225;DHT22;602;48.000;7.840;2022-11-20T07:23:09;8.40;99.90
1225;DHT22;602;48.000;7.840;2022-11-20T07:25:37;8.40;99.90
1225;DHT22;602;48.000;7.840;2022-11-20T07:28:04;8.40;99.90
1225;DHT22;602;48.000;7.840;2022-11-20T07:30:31;8.40;99.90
1225;DHT22;602;48.000;7.840;2022-11-20T07:32:58;8.40;99.90
1225;DHT22;602;48.000;7.840;2022-11-20T07:35:25;8.50;99.90
1225;DHT22;602;48.000;7.840;2022-11-20T07:37:55;8.50;99.90
1225;DHT22;602;48.000;7.840;2022-11-20T07:40:28;8.60;99.90
1225;DHT22;602;48.000;7.840;2022-11-20T07:42:56;8.60;99.90
1225;DHT22;602;48.000;7.840;2022-11-20T07:45:25;8.70;99.90
1225;DHT22;602;48.000;7.840;2022-11-20T07:47:54;8.60;99.90
1225;DHT22;602;48.000;7.840;2022-11-20T07:50:22;8.60;99.90
1225;DHT22;602;48.000;7.840;2022-11-20T07:52:49;8.60;99.90
1225;DHT22;602;48.000;7.840;2022-11-20T07:55:16;8.60;99.90
1225;DHT22;602;48.000;7.840;2022-11-20T07:57:43;8.70;99.90
1225;DHT22;602;48.000;7.840;2022-11-20T08:00:16;8.60;99.90
1225;DHT22;602;48.000;7.840;2022-11-20T08:02:43;8.60;99.90
1225;DHT22;602;48.000;7.840;2022-11-20T08:05:10;8.60;99.90
1225;DHT22;602;48.000;7.840;2022-11-20T08:07:37;8.60;99.90
1225;DHT22;602;48.000;7.840;2022-11-20T08:10:14;8.60;99.90
1225;DHT22;602;48.000;7.840;2022-11-20T08:12:45;8.60;99.90
1225;DHT22;602;48.000;7.840;2022-11-20T08:15:31;8.50;99.90
1225;DHT22;602;48.000;7.840;2022-11-20T08:18:02;8.60;99.90
1225;DHT22;602;48.000;7.840;2022-11-20T08:20:29;8.70;99.90
1225;DHT22;602;48.000;7.840;2022-11-20T08:23:00;8.70;99.90
1225;DHT22;602;48.000;7.840;2022-11-20T08:25:27;8.70;99.90
1225;DHT22;602;48.000;7.840;2022-11-20T08:27:57;8.60;99.90
1225;DHT22;602;48.000;7.840;2022-11-20T08:30:24;8.60;99.90
1225;DHT22;602;48.000;7.840;2022-11-20T08:32:53;8.50;99.90
1225;DHT22;602;48.000;7.840;2022-11-20T08:35:20;8.50;99.90
1225;DHT22;602;48.000;7.840;2022-11-20T08:37:47;8.40;99.90
1225;DHT22;602;48.000;7.840;2022-11-20T08:40:14;8.50;99.90
1225;DHT22;602;48.000;7.840;2022-11-20T08:42:48;8.50;99.90
1225;DHT22;602;48.000;7.840;2022-11-20T08:45:16;8.50;99.90
1225;DHT22;602;48.000;7.840;2022-11-20T08:50:41;8.70;99.90
1225;DHT22;602;48.000;7.840;2022-11-20T08:53:14;8.70;99.90
1225;DHT22;602;48.000;7.840;2022-11-20T08:56:06;8.70;99.90
1225;DHT22;602;48.000;7.840;2022-11-20T08:58:35;8.70;99.90
1225;DHT22;602;48.000;7.840;2022-11-20T09:01:05;8.60;99.90
1225;DHT22;602;48.000;7.840;2022-11-20T09:03:32;8.60;99.90
1225;DHT22;602;48.000;7.840;2022-11-20T09:06:01;8.70;99.90
1225;DHT22;602;48.000;7.840;2022-11-20T09:08:35;8.80;99.90
1225;DHT22;602;48.000;7.840;2022-11-20T09:11:03;8.70;99.90
1225;DHT22;602;48.000;7.840;2022-11-20T09:13:30;8.80;99.90
1225;DHT22;602;48.000;7.840;2022-11-20T09:15:59;8.80;99.90
1225;DHT22;602;48.000;7.840;2022-11-20T09:18:28;8.80;99.90
1225;DHT22;602;48.000;7.840;2022-11-20T09:20:57;8.80;99.90
1225;DHT22;602;48.000;7.840;2022-11-20T09:23:30;8.80;99.90
1225;DHT22;602;48.000;7.840;2022-11-20T09:26:01;8.80;99.90
1225;DHT22;602;48.000;7.840;2022-11-20T09:28:31;8.80;99.90
1225;DHT22;602;48.000;7.840;2022-11-20T09:30:58;8.80;99.90
1225;DHT22;602;48.000;7.840;2022-11-20T09:33:25;8.90;99.90
1225;DHT22;602;48.000;7.840;2022-11-20T09:35:54;8.90;99.90
1225;DHT22;602;48.000;7.840;2022-11-20T09:38:20;8.90;99.90
1225;DHT22;602;48.000;7.840;2022-11-20T09:40:55;8.80;99.90
1225;DHT22;602;48.000;7.840;2022-11-20T09:43:30;8.90;99.90
1225;DHT22;602;48.000;7.840;2022-11-20T09:46:06;8.90;99.90
1225;DHT22;602;48.000;7.840;2022-11-20T09:48:42;8.90;99.90
1225;DHT22;602;48.000;7.840;2022-11-20T09:51:19;9.00;99.90
1225;DHT22;602;48.000;7.840;2022-11-20T09:53:58;9.00;99.90
1225;DHT22;602;48.000;7.840;2022-11-20T09:56:30;9.00;99.90
1225;DHT22;602;48.000;7.840;2022-11-20T09:59:01;9.00;99.90
1225;DHT22;602;48.000;7.840;2022-11-20T10:01:34;9.10;99.90
1225;DHT22;602;48.000;7.840;2022-11-20T10:04:14;9.10;99.90
1225;DHT22;602;48.000;7.840;2022-11-20T10:06:47;9.10;99.90
1225;DHT22;602;48.000;7.840;2022-11-20T10:09:22;9.00;99.90
1225;DHT22;602;48.000;7.840;2022-11-20T10:12:02;9.00;99.90
1225;DHT22;602;48.000;7.840;2022-11-20T10:14:42;9.20;99.90
1225;DHT22;602;48.000;7.840;2022-11-20T10:17:21;9.20;99.90
1225;DHT22;602;48.000;7.840;2022-11-20T10:20:01;9.20;99.90
1225;DHT22;602;48.000;7.840;2022-11-20T10:22:40;9.30;99.90
1225;DHT22;602;48.000;7.840;2022-11-20T10:25:23;9.30;99.90
1225;DHT22;602;48.000;7.840;2022-11-20T10:30:55;9.40;99.90
1225;DHT22;602;48.000;7.840;2022-11-20T10:33:27;9.40;99.90
1225;DHT22;602;48.000;7.840;2022-11-20T10:36:07;9.50;99.90
1225;DHT22;602;48.000;7.840;2022-11-20T10:38:43;9.40;99.90
1225;DHT22;602;48.000;7.840;2022-11-20T10:41:20;9.40;99.90
1225;DHT22;602;48.000;7.840;2022-11-20T10:43:56;9.30;99.90
1225;DHT22;602;48.000;7.840;2022-11-20T10:46:32;9.60;99.90
1225;DHT22;602;48.000;7.840;2022-11-20T10:49:05;9.80;99.90
1225;DHT22;602;48.000;7.840;2022-11-20T10:51:40;9.90;99.90
1225;DHT22;602;48.000;7.840;2022-11-20T10:54:18;10.00;99.90
1225;DHT22;602;48.000;7.840;2022-11-20T10:56:50;10.00;99.90
1225;DHT22;602;48.000;7.840;2022-11-20T10:59:36;10.00;99.90
1225;DHT22;602;48.000;7.840;2022-11-20T11:02:18;9.90;99.90
1225;DHT22;602;48.000;7.840;2022-11-20T11:04:49;9.90;99.90
1225;DHT22;602;48.000;7.840;2022-11-20T11:07:22;9.90;99.90
1225;DHT22;602;48.000;7.840;2022-11-20T11:09:53;9.90;99.90
1225;DHT22;602;48.000;7.840;2022-11-20T11:12:23;9.90;99.90
1225;DHT22;602;48.000;7.840;2022-11-20T11:14:53;9.90;99.90
1225;DHT22;602;48.000;7.840;2022-11-20T11:17:22;9.90;99.90
1225;DHT22;602;48.000;7.840;2022-11-20T11:20:05;9.80;99.90
1225;DHT22;602;48.000;7.840;2022-11-20T11:22:34;9.80;99.90
1225;DHT22;602;48.000;7.840;2022-11-20T11:25:22;9.90;99.90
1225;DHT22;602;48.000;7.840;2022-11-20T11:28:00;10.00;99.90
1225;DHT22;602;48.000;7.840;2022-11-20T11:30:54;10.20;99.90
1225;DHT22;602;48.000;7.840;2022-11-20T11:33:25;10.40;99.90
1225;DHT22;602;48.000;7.840;2022-11-20T11:35:55;10.60;99.90
1225;DHT22;602;48.000;7.840;2022-11-20T11:38:30;10.90;99.90
1225;DHT22;602;48.000;7.840;2022-11-20T11:41:01;11.10;99.90
1225;DHT22;602;48.000;7.840;2022-11-20T11:43:32;11.20;99.90
1225;DHT22;602;48.000;7.840;2022-11-20T11:46:33;11.40;99.90
1225;DHT22;602;48.000;7.840;2022-11-20T11:49:11;11.70;99.90
1225;DHT22;602;48.000;7.840;2022-11-20T11:51:45;11.70;99.90
1225;DHT22;602;48.000;7.840;2022-11-20T11:54:20;11.90;99.90
1225;DHT22;602;48.000;7.840;2022-11-20T11:56:49;11.90;99.90
1225;DHT22;602;48.000;7.840;2022-11-20T11:59:23;12.10;99.90
1225;DHT22;602;48.000;7.840;2022-11-20T12:01:59;12.20;99.90
1225;DHT22;602;48.000;7.840;2022-11-20T12:04:46;12.40;99.90
1225;DHT22;602;48.000;7.840;2022-11-20T12:07:25;12.50;99.90
1225;DHT22;602;48.000;7.840;2022-11-20T12:09:56;12.70;99.90
1225;DHT22;602;48.000;7.840;2022-11-20T12:12:31;12.90;99.90
1225;DHT22;602;48.000;7.840;2022-11-20T12:15:02;12.90;99.90
1225;DHT22;602;48.000;7.840;2022-11-20T12:17:32;13.20;99.90
1225;DHT22;602;48.000;7.840;2022-11-20T12:19:59;13.50;99.90
1225;DHT22;602;48.000;7.840;2022-11-20T12:22:34;13.70;99.90
1225;DHT22;602;48.000;7.840;2022-11-20T12:25:05;13.90;99.90
1225;DHT22;602;48.000;7.840;2022-11-20T12:27:51;13.90;99.90
1225;DHT22;602;48.000;7.840;2022-11-20T12:30:25;14.00;99.90
1225;DHT22;602;48.000;7.840;2022-11-20T12:33:08;14.20;99.90
1225;DHT22;602;48.000;7.840;2022-11-20T12:35:51;14.10;99.90
1225;DHT22;602;48.000;7.840;2022-11-20T12:41:41;13.80;99.90
1225;DHT22;602;48.000;7.840;2022-11-20T12:44:43;13.70;99.90
1225;DHT22;602;48.000;7.840;2022-11-20T12:47:37;13.50;99.90
1225;DHT22;602;48.000;7.840;2022-11-20T12:50:14;13.50;99.90
1225;DHT22;602;48.000;7.840;2022-11-20T12:52:47;13.40;99.90
1225;DHT22;602;48.000;7.840;2022-11-20T12:55:25;13.30;99.90
1225;DHT22;602;48.000;7.840;2022-11-20T12:58:08;13.40;99.90
1225;DHT22;602;48.000;7.840;2022-11-20T13:00:43;13.40;99.90
1225;DHT22;602;48.000;7.840;2022-11-20T13:03:33;13.20;99.90
1225;DHT22;602;48.000;7.840;2022-11-20T13:06:10;13.10;99.90
1225;DHT22;602;48.000;7.840;2022-11-20T13:08:40;13.00;99.90
1225;DHT22;602;48.000;7.840;2022-11-20T13:11:14;12.90;99.90
1225;DHT22;602;48.000;7.840;2022-11-20T13:14:04;12.80;99.90
1225;DHT22;602;48.000;7.840;2022-11-20T13:16:41;12.60;99.90
1225;DHT22;602;48.000;7.840;2022-11-20T13:19:17;12.50;99.90
1225;DHT22;602;48.000;7.840;2022-11-20T13:21:52;12.50;99.90
1225;DHT22;602;48.000;7.840;2022-11-20T13:24:26;12.30;99.90
1225;DHT22;602;48.000;7.840;2022-11-20T13:27:18;12.30;99.90
1225;DHT22;602;48.000;7.840;2022-11-20T13:30:00;12.20;99.90
1225;DHT22;602;48.000;7.840;2022-11-20T13:32:31;12.10;99.90
1225;DHT22;602;48.000;7.840;2022-11-20T13:35:02;12.10;99.90
1225;DHT22;602;48.000;7.840;2022-11-20T13:37:35;12.20;99.90
1225;DHT22;602;48.000;7.840;2022-11-20T13:40:21;12.10;99.90
1225;DHT22;602;48.000;7.840;2022-11-20T13:42:55;12.10;99.90
1225;DHT22;602;48.000;7.840;2022-11-20T13:45:26;12.10;99.90
1225;DHT22;602;48.000;7.840;2022-11-20T13:47:57;11.90;99.90
1225;DHT22;602;48.000;7.840;2022-11-20T13:50:40;11.90;99.90
1225;DHT22;602;48.000;7.840;2022-11-20T13:53:23;12.00;99.90
1225;DHT22;602;48.000;7.840;2022-11-20T13:56:00;11.90;99.90
1225;DHT22;602;48.000;7.840;2022-11-20T13:58:36;11.70;99.90
1225;DHT22;602;48.000;7.840;2022-11-20T14:01:10;11.80;99.90
1225;DHT22;602;48.000;7.840;2022-11-20T14:03:42;11.60;99.90
1225;DHT22;602;48.000;7.840;2022-11-20T14:06:15;11.60;99.90
1225;DHT22;602;48.000;7.840;2022-11-20T14:08:50;11.50;99.90
1225;DHT22;602;48.000;7.840;2022-11-20T14:11:20;11.50;99.90
1225;DHT22;602;48.000;7.840;2022-11-20T14:13:59;11.50;99.90
1225;DHT22;602;48.000;7.840;2022-11-20T14:16:27;11.50;99.90
1225;DHT22;602;48.000;7.840;2022-11-20T14:18:57;11.40;99.90
1225;DHT22;602;48.000;7.840;2022-11-20T14:21:26;11.20;99.90
1225;DHT22;602;48.000;7.840;2022-11-20T14:24:04;11.20;99.90
1225;DHT22;602;48.000;7.840;2022-11-20T14:26:32;11.20;99.90
1225;DHT22;602;48.000;7.840;2022-11-20T14:29:04;11.30;99.90
1225;DHT22;602;48.000;7.840;2022-11-20T14:31:30;11.20;99.90
1225;DHT22;602;48.000;7.840;2022-11-20T14:33:57;11.10;99.90
1225;DHT22;602;48.000;7.840;2022-11-20T14:36:25;11.10;99.90
1225;DHT22;602;48.000;7.840;2022-11-20T14:38:52;11.10;99.90
1225;DHT22;602;48.000;7.840;2022-11-20T14:41:22;11.10;99.90
1225;DHT22;602;48.000;7.840;2022-11-20T14:43:53;11.00;99.90
1225;DHT22;602;48.000;7.840;2022-11-20T14:46:26;11.00;99.90
1225;DHT22;602;48.000;7.840;2022-11-20T14:48:55;11.00;99.90
1225;DHT22;602;48.000;7.840;2022-11-20T14:51:31;10.90;99.90
1225;DHT22;602;48.000;7.840;2022-11-20T14:54:09;10.80;99.90
1225;DHT22;602;48.000;7.840;2022-11-20T14:56:37;10.80;99.90
1225;DHT22;602;48.000;7.840;2022-11-20T14:59:12;10.80;99.90
1225;DHT22;602;48.000;7.840;2022-11-20T15:01:59;10.80;99.90
1225;DHT22;602;48.000;7.840;2022-11-20T15:04:27;10.80;99.90
1225;DHT22;602;48.000;7.840;2022-11-20T15:06:55;10.70;99.90
1225;DHT22;602;48.000;7.840;2022-11-20T15:09:23;10.60;99.90
1225;DHT22;602;48.000;7.840;2022-11-20T15:11:57;10.70;99.90
1225;DHT22;602;48.000;7.840;2022-11-20T15:14:29;10.70;99.90
1225;DHT22;602;48.000;7.840;2022-11-20T15:17:01;10.80;99.90
1225;DHT22;602;48.000;7.840;2022-11-20T15:19:33;10.70;99.90
1225;DHT22;602;48.000;7.840;2022-11-20T15:22:00;10.70;99.90
1225;DHT22;602;48.000;7.840;2022-11-20T15:24:35;10.80;99.90
1225;DHT22;602;48.000;7.840;2022-11-20T15:27:09;10.90;99.90
1225;DHT22;602;48.000;7.840;2022-11-20T15:29:36;10.90;99.90
1225;DHT22;602;48.000;7.840;2022-11-20T15:32:07;11.00;99.90
1225;DHT22;602;48.000;7.840;2022-11-20T15:34:34;10.90;99.90
1225;DHT22;602;48.000;7.840;2022-11-20T15:37:01;10.70;99.90
1225;DHT22;602;48.000;7.840;2022-11-20T15:39:28;10.60;99.90
1225;DHT22;602;48.000;7.840;2022-11-20T15:41:56;10.60;99.90
1225;DHT22;602;48.000;7.840;2022-11-20T15:44:25;10.70;99.90
1225;DHT22;602;48.000;7.840;2022-11-20T15:46:51;10.70;99.90
1225;DHT22;602;48.000;7.840;2022-11-20T15:49:18;10.60;99.90
1225;DHT22;602;48.000;7.840;2022-11-20T15:51:49;10.60;99.90
1225;DHT22;602;48.000;7.840;2022-11-20T15:54:21;10.60;99.90
1225;DHT22;602;48.000;7.840;2022-11-20T15:56:54;10.60;99.90
1225;DHT22;602;48.000;7.840;2022-11-20T15:59:21;10.40;99.90
1225;DHT22;602;48.000;7.840;2022-11-20T16:01:49;10.40;99.90
1225;DHT22;602;48.000;7.840;2022-11-20T16:04:19;10.40;99.90
1225;DHT22;602;48.000;7.840;2022-11-20T16:06:46;10.40;99.90
1225;DHT22;602;48.000;7.840;2022-11-20T16:09:17;10.30;99.90
1225;DHT22;602;48.000;7.840;2022-11-20T16:11:46;10.30;99.90
1225;DHT22;602;48.000;7.840;2022-11-20T16:14:15;10.20;99.90
1225;DHT22;602;48.000;7.840;2022-11-20T16:17:03;10.30;99.90
1225;DHT22;602;48.000;7.840;2022-11-20T16:19:31;10.30;99.90
1225;DHT22;602;48.000;7.840;2022-11-20T16:21:58;10.30;99.90
1225;DHT22;602;48.000;7.840;2022-11-20T16:24:26;10.30;99.90
1225;DHT22;602;48.000;7.840;2022-11-20T16:26:55;10.10;99.90
1225;DHT22;602;48.000;7.840;2022-11-20T16:29:25;10.20;99.90
1225;DHT22;602;48.000;7.840;2022-11-20T16:31:53;10.20;99.90
1225;DHT22;602;48.000;7.840;2022-11-20T16:34:23;10.20;99.90
1225;DHT22;602;48.000;7.840;2022-11-20T16:36:51;10.20;99.90
1225;DHT22;602;48.000;7.840;2022-11-20T16:39:20;10.10;99.90
1225;DHT22;602;48.000;7.840;2022-11-20T16:41:47;10.20;99.90
1225;DHT22;602;48.000;7.840;2022-11-20T16:44:14;10.30;99.90
1225;DHT22;602;48.000;7.840;2022-11-20T16:46:41;10.20;99.90
1225;DHT22;602;48.000;7.840;2022-11-20T16:49:13;10.20;99.90
1225;DHT22;602;48.000;7.840;2022-11-20T16:51:41;10.10;99.90
1225;DHT22;602;48.000;7.840;2022-11-20T16:54:09;10.20;99.90
1225;DHT22;602;48.000;7.840;2022-11-20T16:56:36;10.20;99.90
1225;DHT22;602;48.000;7.840;2022-11-20T16:59:05;10.30;99.90
1225;DHT22;602;48.000;7.840;2022-11-20T17:01:31;10.20;99.90
1225;DHT22;602;48.000;7.840;2022-11-20T17:04:02;10.30;99.90
1225;DHT22;602;48.000;7.840;2022-11-20T17:06:30;10.20;99.90